Fuji Maru — JD2030 — position and weather

sailwx.info

Track history (hours):
 
Tides and Currents Weather Stations Pressure Air Temp Water Temp Dewpoint Dewpoint Depression Visibility Wind Speed Wind Dir Waves Ship Positions

Fuji Maru

Last reported at 2014-Sep-30 22:32 UTC. Time now 2014-Oct-01 08:18 UTC.
Position N 35°34' E 139°49'.

Length 38 m; draft 4.4 m.

Type: Tug. MMSI: 431001102.

Date/timePositionNaut miles runAvg speedWind from/ knotsBaromVisibWave heightAir tempDewpointWater temp
2014-Sep-30 22:32N 35°34' E 139°49'2 1.6
2014-Sep-30 21:33N 35°34' E 139°51'4 0.2
2014-Sep-30 05:21N 35°36' E 139°47'1 1.3
2014-Sep-30 04:33N 35°35' E 139°48'1 0.0
2014-Sep-28 09:28N 35°36' E 139°47'1 0.0
2014-Sep-27 14:32N 35°37' E 139°47'3 2.8
2014-Sep-27 13:33N 35°34' E 139°49'2 1.9
2014-Sep-27 12:31N 35°35' E 139°47'1 1.2
2014-Sep-27 11:32N 35°37' E 139°47'2 0.1
2014-Sep-26 21:06N 35°39' E 139°46'3 3.0
2014-Sep-26 20:06N 35°36' E 139°47'3 5.6
2014-Sep-26 19:33N 35°34' E 139°50'6 4.7
2014-Sep-26 18:22N 35°38' E 139°45'0 0.0
2014-Sep-25 18:15N 35°38' E 139°46'3 2.8
2014-Sep-25 17:10N 35°36' E 139°47'4 6.4
2014-Sep-25 16:33N 35°33' E 139°50'5 2.0
2014-Sep-25 14:08N 35°38' E 139°49'2 3.1
2014-Sep-25 13:30N 35°36' E 139°50'3 0.3
2014-Sep-25 03:22N 35°36' E 139°47'0 0.5
2014-Sep-25 02:24N 35°36' E 139°47'1 0.1
2014-Sep-24 22:23N 35°36' E 139°47'1 1.3
2014-Sep-24 21:31N 35°37' E 139°46'  
Track history (hours):
 
Tides and Currents Weather Stations Pressure Air Temp Water Temp Dewpoint Dewpoint Depression Visibility Wind Speed Wind Dir Waves Ship Positions

Fuji Maru

Last reported at 2014-Sep-30 22:32 UTC. Time now 2014-Oct-01 08:18 UTC.
Position N 35°34' E 139°49'.

Length 38 m; draft 4.4 m.

Type: Tug. MMSI: 431001102.

Date/timePositionNaut miles runAvg speedWind from/ knotsBaromVisibWave heightAir tempDewpointWater temp
2014-Sep-30 22:32N 35°34' E 139°49'2 1.6
2014-Sep-30 21:33N 35°34' E 139°51'4 0.2
2014-Sep-30 05:21N 35°36' E 139°47'1 1.3
2014-Sep-30 04:33N 35°35' E 139°48'1 0.0
2014-Sep-28 09:28N 35°36' E 139°47'1 0.0
2014-Sep-27 14:32N 35°37' E 139°47'3 2.8
2014-Sep-27 13:33N 35°34' E 139°49'2 1.9
2014-Sep-27 12:31N 35°35' E 139°47'1 1.2
2014-Sep-27 11:32N 35°37' E 139°47'2 0.1
2014-Sep-26 21:06N 35°39' E 139°46'3 3.0
2014-Sep-26 20:06N 35°36' E 139°47'3 5.6
2014-Sep-26 19:33N 35°34' E 139°50'6 4.7
2014-Sep-26 18:22N 35°38' E 139°45'0 0.0
2014-Sep-25 18:15N 35°38' E 139°46'3 2.8
2014-Sep-25 17:10N 35°36' E 139°47'4 6.4
2014-Sep-25 16:33N 35°33' E 139°50'5 2.0
2014-Sep-25 14:08N 35°38' E 139°49'2 3.1
2014-Sep-25 13:30N 35°36' E 139°50'3 0.3
2014-Sep-25 03:22N 35°36' E 139°47'0 0.5
2014-Sep-25 02:24N 35°36' E 139°47'1 0.1
2014-Sep-24 22:23N 35°36' E 139°47'1 1.3
2014-Sep-24 21:31N 35°37' E 139°46'  

Dump ship's entire track history